sensor_id;sensor_type;location;lat;lon;timestamp;P1;durP1;ratioP1;P2;durP2;ratioP2
12048;SDS011;6085;49.452;8.502;2023-03-03T00:03:34;25.95;;;16.05;;
12048;SDS011;6085;49.452;8.502;2023-03-03T00:07:38;26.60;;;16.98;;
12048;SDS011;6085;49.452;8.502;2023-03-03T00:11:40;23.52;;;16.02;;
12048;SDS011;6085;49.452;8.502;2023-03-03T00:15:42;27.42;;;16.65;;
12048;SDS011;6085;49.452;8.502;2023-03-03T00:19:44;25.67;;;16.02;;
12048;SDS011;6085;49.452;8.502;2023-03-03T00:23:47;27.13;;;17.33;;
12048;SDS011;6085;49.452;8.502;2023-03-03T00:27:49;28.23;;;16.75;;
12048;SDS011;6085;49.452;8.502;2023-03-03T00:31:51;25.83;;;16.92;;
12048;SDS011;6085;49.452;8.502;2023-03-03T00:35:54;26.35;;;16.85;;
12048;SDS011;6085;49.452;8.502;2023-03-03T00:40:00;27.02;;;16.50;;
12048;SDS011;6085;49.452;8.502;2023-03-03T00:44:27;26.80;;;16.67;;
12048;SDS011;6085;49.452;8.502;2023-03-03T00:48:41;28.05;;;17.13;;
12048;SDS011;6085;49.452;8.502;2023-03-03T00:52:44;29.38;;;17.23;;
12048;SDS011;6085;49.452;8.502;2023-03-03T00:56:55;29.38;;;18.58;;
12048;SDS011;6085;49.452;8.502;2023-03-03T01:00:57;25.27;;;16.98;;
12048;SDS011;6085;49.452;8.502;2023-03-03T01:04:58;32.05;;;18.67;;
12048;SDS011;6085;49.452;8.502;2023-03-03T01:09:00;31.13;;;17.77;;
12048;SDS011;6085;49.452;8.502;2023-03-03T01:13:04;28.30;;;16.85;;
12048;SDS011;6085;49.452;8.502;2023-03-03T01:17:07;30.02;;;17.85;;
12048;SDS011;6085;49.452;8.502;2023-03-03T01:21:09;27.92;;;17.70;;
12048;SDS011;6085;49.452;8.502;2023-03-03T01:25:12;31.05;;;17.55;;
12048;SDS011;6085;49.452;8.502;2023-03-03T01:29:15;30.00;;;17.90;;
12048;SDS011;6085;49.452;8.502;2023-03-03T01:33:17;29.50;;;17.23;;
12048;SDS011;6085;49.452;8.502;2023-03-03T01:37:19;27.88;;;17.15;;
12048;SDS011;6085;49.452;8.502;2023-03-03T01:41:21;29.92;;;17.48;;
12048;SDS011;6085;49.452;8.502;2023-03-03T01:45:25;26.95;;;17.33;;
12048;SDS011;6085;49.452;8.502;2023-03-03T01:49:29;27.48;;;16.92;;
12048;SDS011;6085;49.452;8.502;2023-03-03T01:53:36;27.48;;;17.05;;
12048;SDS011;6085;49.452;8.502;2023-03-03T01:57:43;29.70;;;18.10;;
12048;SDS011;6085;49.452;8.502;2023-03-03T02:01:50;27.15;;;17.52;;
12048;SDS011;6085;49.452;8.502;2023-03-03T02:05:54;26.73;;;16.08;;
12048;SDS011;6085;49.452;8.502;2023-03-03T02:10:01;26.85;;;16.40;;
12048;SDS011;6085;49.452;8.502;2023-03-03T02:14:05;29.42;;;17.00;;
12048;SDS011;6085;49.452;8.502;2023-03-03T02:18:09;29.00;;;17.10;;
12048;SDS011;6085;49.452;8.502;2023-03-03T02:22:13;30.55;;;18.55;;
12048;SDS011;6085;49.452;8.502;2023-03-03T02:26:22;29.83;;;17.98;;
12048;SDS011;6085;49.452;8.502;2023-03-03T02:30:26;26.98;;;16.77;;
12048;SDS011;6085;49.452;8.502;2023-03-03T02:34:28;29.05;;;17.33;;
12048;SDS011;6085;49.452;8.502;2023-03-03T02:38:31;29.88;;;17.80;;
12048;SDS011;6085;49.452;8.502;2023-03-03T02:42:39;32.80;;;18.70;;
12048;SDS011;6085;49.452;8.502;2023-03-03T02:46:42;31.10;;;17.88;;
12048;SDS011;6085;49.452;8.502;2023-03-03T02:50:45;31.35;;;18.10;;
12048;SDS011;6085;49.452;8.502;2023-03-03T02:54:47;28.27;;;17.35;;
12048;SDS011;6085;49.452;8.502;2023-03-03T02:58:51;37.65;;;22.38;;
12048;SDS011;6085;49.452;8.502;2023-03-03T03:02:53;35.50;;;20.63;;
12048;SDS011;6085;49.452;8.502;2023-03-03T03:06:55;38.50;;;22.10;;
12048;SDS011;6085;49.452;8.502;2023-03-03T03:10:57;36.10;;;21.45;;
12048;SDS011;6085;49.452;8.502;2023-03-03T03:15:00;35.97;;;23.40;;
12048;SDS011;6085;49.452;8.502;2023-03-03T03:19:03;38.08;;;22.77;;
12048;SDS011;6085;49.452;8.502;2023-03-03T03:23:06;34.28;;;21.45;;
12048;SDS011;6085;49.452;8.502;2023-03-03T03:27:08;34.83;;;19.95;;
12048;SDS011;6085;49.452;8.502;2023-03-03T03:31:11;35.15;;;20.38;;
12048;SDS011;6085;49.452;8.502;2023-03-03T03:35:14;36.88;;;21.23;;
12048;SDS011;6085;49.452;8.502;2023-03-03T03:39:17;34.92;;;20.92;;
12048;SDS011;6085;49.452;8.502;2023-03-03T03:43:19;30.70;;;19.10;;
12048;SDS011;6085;49.452;8.502;2023-03-03T03:47:23;33.20;;;20.02;;
12048;SDS011;6085;49.452;8.502;2023-03-03T03:51:25;37.20;;;20.17;;
12048;SDS011;6085;49.452;8.502;2023-03-03T03:55:27;31.00;;;19.45;;
12048;SDS011;6085;49.452;8.502;2023-03-03T03:59:29;31.20;;;19.40;;
12048;SDS011;6085;49.452;8.502;2023-03-03T04:03:33;33.50;;;19.85;;
12048;SDS011;6085;49.452;8.502;2023-03-03T04:07:35;31.83;;;19.88;;
12048;SDS011;6085;49.452;8.502;2023-03-03T04:11:37;30.98;;;18.85;;
12048;SDS011;6085;49.452;8.502;2023-03-03T04:15:39;30.88;;;18.15;;
12048;SDS011;6085;49.452;8.502;2023-03-03T04:19:44;32.33;;;18.88;;
12048;SDS011;6085;49.452;8.502;2023-03-03T04:23:46;32.45;;;18.85;;
12048;SDS011;6085;49.452;8.502;2023-03-03T04:27:48;31.77;;;17.60;;
12048;SDS011;6085;49.452;8.502;2023-03-03T04:31:51;30.70;;;19.30;;
12048;SDS011;6085;49.452;8.502;2023-03-03T04:35:54;31.65;;;18.50;;
12048;SDS011;6085;49.452;8.502;2023-03-03T04:39:56;31.25;;;17.35;;
12048;SDS011;6085;49.452;8.502;2023-03-03T04:43:58;31.67;;;17.77;;
12048;SDS011;6085;49.452;8.502;2023-03-03T04:48:00;28.52;;;16.90;;
12048;SDS011;6085;49.452;8.502;2023-03-03T04:52:04;25.45;;;16.30;;
12048;SDS011;6085;49.452;8.502;2023-03-03T04:56:06;28.70;;;17.10;;
12048;SDS011;6085;49.452;8.502;2023-03-03T05:00:09;32.53;;;18.50;;
12048;SDS011;6085;49.452;8.502;2023-03-03T05:04:14;30.50;;;17.77;;
12048;SDS011;6085;49.452;8.502;2023-03-03T05:08:18;32.55;;;17.77;;
12048;SDS011;6085;49.452;8.502;2023-03-03T05:12:20;30.73;;;18.08;;
12048;SDS011;6085;49.452;8.502;2023-03-03T05:16:22;26.92;;;15.93;;
12048;SDS011;6085;49.452;8.502;2023-03-03T05:20:24;28.90;;;17.33;;
12048;SDS011;6085;49.452;8.502;2023-03-03T05:24:28;28.63;;;17.38;;
12048;SDS011;6085;49.452;8.502;2023-03-03T05:28:30;31.27;;;17.80;;
12048;SDS011;6085;49.452;8.502;2023-03-03T05:32:33;26.15;;;16.40;;
12048;SDS011;6085;49.452;8.502;2023-03-03T05:36:35;28.88;;;16.85;;
12048;SDS011;6085;49.452;8.502;2023-03-03T05:40:38;24.77;;;15.70;;
12048;SDS011;6085;49.452;8.502;2023-03-03T05:44:40;26.10;;;15.52;;
12048;SDS011;6085;49.452;8.502;2023-03-03T05:48:42;28.10;;;15.45;;
12048;SDS011;6085;49.452;8.502;2023-03-03T05:52:46;23.65;;;13.77;;
12048;SDS011;6085;49.452;8.502;2023-03-03T05:56:53;23.67;;;15.57;;
12048;SDS011;6085;49.452;8.502;2023-03-03T06:00:59;24.23;;;14.98;;
12048;SDS011;6085;49.452;8.502;2023-03-03T06:05:01;26.42;;;14.45;;
12048;SDS011;6085;49.452;8.502;2023-03-03T06:09:03;22.25;;;13.70;;
12048;SDS011;6085;49.452;8.502;2023-03-03T06:13:07;19.88;;;13.18;;
12048;SDS011;6085;49.452;8.502;2023-03-03T06:17:09;21.20;;;12.65;;
12048;SDS011;6085;49.452;8.502;2023-03-03T06:21:13;23.80;;;14.38;;
12048;SDS011;6085;49.452;8.502;2023-03-03T06:25:17;22.63;;;12.93;;
12048;SDS011;6085;49.452;8.502;2023-03-03T06:29:21;25.02;;;14.10;;
12048;SDS011;6085;49.452;8.502;2023-03-03T06:33:23;19.52;;;12.38;;
12048;SDS011;6085;49.452;8.502;2023-03-03T06:37:25;26.17;;;14.70;;
12048;SDS011;6085;49.452;8.502;2023-03-03T06:41:27;19.75;;;14.00;;
12048;SDS011;6085;49.452;8.502;2023-03-03T06:45:31;23.70;;;14.32;;
12048;SDS011;6085;49.452;8.502;2023-03-03T06:49:33;23.30;;;15.05;;
12048;SDS011;6085;49.452;8.502;2023-03-03T06:53:35;25.13;;;14.13;;
12048;SDS011;6085;49.452;8.502;2023-03-03T06:57:37;31.05;;;17.50;;
12048;SDS011;6085;49.452;8.502;2023-03-03T07:01:41;25.38;;;17.33;;
12048;SDS011;6085;49.452;8.502;2023-03-03T07:05:44;23.10;;;15.93;;
12048;SDS011;6085;49.452;8.502;2023-03-03T07:09:47;27.05;;;18.05;;
12048;SDS011;6085;49.452;8.502;2023-03-03T07:13:51;27.35;;;18.33;;
12048;SDS011;6085;49.452;8.502;2023-03-03T07:17:59;32.42;;;20.88;;
12048;SDS011;6085;49.452;8.502;2023-03-03T07:22:07;27.83;;;19.85;;
12048;SDS011;6085;49.452;8.502;2023-03-03T07:26:17;30.38;;;18.27;;
12048;SDS011;6085;49.452;8.502;2023-03-03T07:30:24;23.35;;;16.05;;
12048;SDS011;6085;49.452;8.502;2023-03-03T07:34:37;24.90;;;15.98;;
12048;SDS011;6085;49.452;8.502;2023-03-03T07:38:41;21.95;;;14.73;;
12048;SDS011;6085;49.452;8.502;2023-03-03T07:42:49;19.30;;;14.27;;
12048;SDS011;6085;49.452;8.502;2023-03-03T07:46:51;20.25;;;14.93;;
12048;SDS011;6085;49.452;8.502;2023-03-03T07:50:55;21.02;;;14.27;;
12048;SDS011;6085;49.452;8.502;2023-03-03T07:54:59;18.70;;;13.05;;
12048;SDS011;6085;49.452;8.502;2023-03-03T07:59:08;19.90;;;13.75;;
12048;SDS011;6085;49.452;8.502;2023-03-03T08:03:20;19.13;;;13.68;;
12048;SDS011;6085;49.452;8.502;2023-03-03T08:07:24;16.40;;;13.05;;
12048;SDS011;6085;49.452;8.502;2023-03-03T08:11:26;19.40;;;13.38;;
12048;SDS011;6085;49.452;8.502;2023-03-03T08:15:30;20.48;;;13.60;;
12048;SDS011;6085;49.452;8.502;2023-03-03T08:19:36;19.17;;;13.00;;
12048;SDS011;6085;49.452;8.502;2023-03-03T08:23:40;16.98;;;12.40;;
12048;SDS011;6085;49.452;8.502;2023-03-03T08:27:42;26.75;;;14.98;;
12048;SDS011;6085;49.452;8.502;2023-03-03T08:31:43;18.55;;;13.27;;
12048;SDS011;6085;49.452;8.502;2023-03-03T08:35:46;16.02;;;12.35;;
12048;SDS011;6085;49.452;8.502;2023-03-03T08:39:49;18.73;;;13.68;;
12048;SDS011;6085;49.452;8.502;2023-03-03T08:43:51;16.85;;;13.07;;
12048;SDS011;6085;49.452;8.502;2023-03-03T08:47:53;17.38;;;13.55;;
12048;SDS011;6085;49.452;8.502;2023-03-03T08:51:56;16.52;;;12.48;;
12048;SDS011;6085;49.452;8.502;2023-03-03T08:56:01;21.42;;;14.02;;
12048;SDS011;6085;49.452;8.502;2023-03-03T09:00:04;17.50;;;13.55;;
12048;SDS011;6085;49.452;8.502;2023-03-03T09:04:08;19.48;;;13.18;;
12048;SDS011;6085;49.452;8.502;2023-03-03T09:08:10;16.30;;;13.90;;
12048;SDS011;6085;49.452;8.502;2023-03-03T09:12:15;20.55;;;16.15;;
12048;SDS011;6085;49.452;8.502;2023-03-03T09:16:19;20.90;;;15.13;;
12048;SDS011;6085;49.452;8.502;2023-03-03T09:20:32;20.45;;;16.00;;
12048;SDS011;6085;49.452;8.502;2023-03-03T09:24:35;22.42;;;16.73;;
12048;SDS011;6085;49.452;8.502;2023-03-03T09:28:39;20.08;;;16.50;;
12048;SDS011;6085;49.452;8.502;2023-03-03T09:32:42;20.42;;;16.10;;
12048;SDS011;6085;49.452;8.502;2023-03-03T09:36:44;19.83;;;16.33;;
12048;SDS011;6085;49.452;8.502;2023-03-03T09:40:49;22.02;;;16.35;;
12048;SDS011;6085;49.452;8.502;2023-03-03T09:45:11;19.30;;;15.68;;
12048;SDS011;6085;49.452;8.502;2023-03-03T09:49:38;20.02;;;16.25;;
12048;SDS011;6085;49.452;8.502;2023-03-03T09:53:55;20.95;;;16.08;;
12048;SDS011;6085;49.452;8.502;2023-03-03T09:58:13;20.02;;;15.50;;
12048;SDS011;6085;49.452;8.502;2023-03-03T10:02:33;20.65;;;15.80;;
12048;SDS011;6085;49.452;8.502;2023-03-03T10:06:44;21.13;;;16.02;;
12048;SDS011;6085;49.452;8.502;2023-03-03T10:11:00;22.55;;;16.90;;
12048;SDS011;6085;49.452;8.502;2023-03-03T10:15:19;22.13;;;16.92;;
12048;SDS011;6085;49.452;8.502;2023-03-03T10:19:40;20.67;;;16.10;;
12048;SDS011;6085;49.452;8.502;2023-03-03T10:23:52;20.27;;;15.57;;
12048;SDS011;6085;49.452;8.502;2023-03-03T10:27:58;21.50;;;15.77;;
12048;SDS011;6085;49.452;8.502;2023-03-03T10:32:39;25.00;;;17.38;;
12048;SDS011;6085;49.452;8.502;2023-03-03T10:36:54;20.40;;;16.23;;
12048;SDS011;6085;49.452;8.502;2023-03-03T10:41:04;22.90;;;16.73;;
12048;SDS011;6085;49.452;8.502;2023-03-03T10:45:28;25.20;;;17.10;;
12048;SDS011;6085;49.452;8.502;2023-03-03T10:49:45;22.77;;;16.73;;
12048;SDS011;6085;49.452;8.502;2023-03-03T10:54:01;23.70;;;16.80;;
12048;SDS011;6085;49.452;8.502;2023-03-03T10:58:19;21.25;;;16.13;;
12048;SDS011;6085;49.452;8.502;2023-03-03T11:02:32;25.65;;;17.92;;
12048;SDS011;6085;49.452;8.502;2023-03-03T11:06:45;24.13;;;17.38;;
12048;SDS011;6085;49.452;8.502;2023-03-03T11:10:57;25.60;;;18.02;;
12048;SDS011;6085;49.452;8.502;2023-03-03T11:19:45;24.48;;;17.02;;
12048;SDS011;6085;49.452;8.502;2023-03-03T11:24:01;23.85;;;17.48;;
12048;SDS011;6085;49.452;8.502;2023-03-03T11:28:18;23.73;;;16.98;;
12048;SDS011;6085;49.452;8.502;2023-03-03T11:32:35;23.92;;;17.55;;
12048;SDS011;6085;49.452;8.502;2023-03-03T11:36:43;24.10;;;17.85;;
12048;SDS011;6085;49.452;8.502;2023-03-03T11:40:51;24.30;;;16.98;;
12048;SDS011;6085;49.452;8.502;2023-03-03T11:44:58;23.00;;;16.10;;
12048;SDS011;6085;49.452;8.502;2023-03-03T11:49:04;22.55;;;17.27;;
12048;SDS011;6085;49.452;8.502;2023-03-03T11:53:16;22.08;;;16.30;;
12048;SDS011;6085;49.452;8.502;2023-03-03T11:57:28;25.80;;;16.83;;
12048;SDS011;6085;49.452;8.502;2023-03-03T12:01:36;24.50;;;17.38;;
12048;SDS011;6085;49.452;8.502;2023-03-03T12:05:47;21.60;;;16.27;;
12048;SDS011;6085;49.452;8.502;2023-03-03T12:09:58;21.63;;;16.40;;
12048;SDS011;6085;49.452;8.502;2023-03-03T12:14:13;23.80;;;17.02;;
12048;SDS011;6085;49.452;8.502;2023-03-03T12:18:36;24.40;;;17.73;;
12048;SDS011;6085;49.452;8.502;2023-03-03T12:22:49;26.27;;;16.95;;
12048;SDS011;6085;49.452;8.502;2023-03-03T12:27:03;20.30;;;15.55;;
12048;SDS011;6085;49.452;8.502;2023-03-03T12:31:16;20.90;;;16.08;;
12048;SDS011;6085;49.452;8.502;2023-03-03T12:35:30;20.42;;;15.80;;
12048;SDS011;6085;49.452;8.502;2023-03-03T12:39:40;21.40;;;15.90;;
12048;SDS011;6085;49.452;8.502;2023-03-03T12:43:51;20.05;;;14.93;;
12048;SDS011;6085;49.452;8.502;2023-03-03T12:47:59;19.42;;;14.85;;
12048;SDS011;6085;49.452;8.502;2023-03-03T12:52:10;21.30;;;15.68;;
12048;SDS011;6085;49.452;8.502;2023-03-03T12:56:23;23.00;;;15.45;;
12048;SDS011;6085;49.452;8.502;2023-03-03T13:00:37;19.42;;;15.35;;
12048;SDS011;6085;49.452;8.502;2023-03-03T13:04:50;18.98;;;15.68;;
12048;SDS011;6085;49.452;8.502;2023-03-03T13:09:04;21.77;;;15.75;;
12048;SDS011;6085;49.452;8.502;2023-03-03T13:13:19;18.08;;;14.55;;
12048;SDS011;6085;49.452;8.502;2023-03-03T13:17:26;22.40;;;15.23;;
12048;SDS011;6085;49.452;8.502;2023-03-03T13:21:32;22.88;;;15.82;;
12048;SDS011;6085;49.452;8.502;2023-03-03T13:25:43;21.27;;;16.27;;
12048;SDS011;6085;49.452;8.502;2023-03-03T13:29:53;21.40;;;15.98;;
12048;SDS011;6085;49.452;8.502;2023-03-03T13:33:59;22.38;;;16.33;;
12048;SDS011;6085;49.452;8.502;2023-03-03T13:38:02;21.00;;;16.05;;
12048;SDS011;6085;49.452;8.502;2023-03-03T13:42:10;18.65;;;14.65;;
12048;SDS011;6085;49.452;8.502;2023-03-03T13:46:21;22.50;;;15.48;;
12048;SDS011;6085;49.452;8.502;2023-03-03T13:50:35;23.85;;;15.65;;
12048;SDS011;6085;49.452;8.502;2023-03-03T13:54:48;21.10;;;15.10;;
12048;SDS011;6085;49.452;8.502;2023-03-03T13:58:59;21.10;;;15.57;;
12048;SDS011;6085;49.452;8.502;2023-03-03T14:03:15;19.50;;;15.23;;
12048;SDS011;6085;49.452;8.502;2023-03-03T14:07:29;20.15;;;15.93;;
12048;SDS011;6085;49.452;8.502;2023-03-03T14:11:39;18.58;;;13.60;;
12048;SDS011;6085;49.452;8.502;2023-03-03T14:15:49;20.98;;;14.73;;
12048;SDS011;6085;49.452;8.502;2023-03-03T14:19:59;20.20;;;14.45;;
12048;SDS011;6085;49.452;8.502;2023-03-03T14:24:14;19.48;;;14.55;;
12048;SDS011;6085;49.452;8.502;2023-03-03T14:28:18;20.33;;;15.40;;
12048;SDS011;6085;49.452;8.502;2023-03-03T14:32:25;23.67;;;15.02;;
12048;SDS011;6085;49.452;8.502;2023-03-03T14:36:30;24.88;;;16.15;;
12048;SDS011;6085;49.452;8.502;2023-03-03T14:40:34;21.48;;;15.57;;
12048;SDS011;6085;49.452;8.502;2023-03-03T14:44:47;19.75;;;14.45;;
12048;SDS011;6085;49.452;8.502;2023-03-03T14:48:56;19.77;;;14.40;;
12048;SDS011;6085;49.452;8.502;2023-03-03T14:53:06;20.67;;;14.18;;
12048;SDS011;6085;49.452;8.502;2023-03-03T14:57:14;18.48;;;13.43;;
12048;SDS011;6085;49.452;8.502;2023-03-03T15:01:20;17.60;;;13.20;;
12048;SDS011;6085;49.452;8.502;2023-03-03T15:05:26;18.00;;;13.18;;
12048;SDS011;6085;49.452;8.502;2023-03-03T15:09:32;17.92;;;12.73;;
12048;SDS011;6085;49.452;8.502;2023-03-03T15:13:38;15.55;;;12.75;;
12048;SDS011;6085;49.452;8.502;2023-03-03T15:17:41;19.25;;;13.35;;
12048;SDS011;6085;49.452;8.502;2023-03-03T15:22:00;17.50;;;13.30;;
12048;SDS011;6085;49.452;8.502;2023-03-03T15:26:09;20.38;;;12.68;;
12048;SDS011;6085;49.452;8.502;2023-03-03T15:30:20;16.17;;;12.07;;
12048;SDS011;6085;49.452;8.502;2023-03-03T15:34:29;18.83;;;12.93;;
12048;SDS011;6085;49.452;8.502;2023-03-03T15:38:42;16.23;;;11.55;;
12048;SDS011;6085;49.452;8.502;2023-03-03T15:42:56;14.77;;;10.70;;
12048;SDS011;6085;49.452;8.502;2023-03-03T15:47:14;13.60;;;10.77;;
12048;SDS011;6085;49.452;8.502;2023-03-03T15:56:10;14.85;;;11.02;;
12048;SDS011;6085;49.452;8.502;2023-03-03T16:04:55;14.90;;;10.70;;
12048;SDS011;6085;49.452;8.502;2023-03-03T16:09:02;14.25;;;10.05;;
12048;SDS011;6085;49.452;8.502;2023-03-03T16:13:27;15.45;;;10.38;;
12048;SDS011;6085;49.452;8.502;2023-03-03T16:17:48;14.10;;;9.80;;
12048;SDS011;6085;49.452;8.502;2023-03-03T16:22:02;17.42;;;10.27;;
12048;SDS011;6085;49.452;8.502;2023-03-03T16:26:26;12.45;;;9.20;;
12048;SDS011;6085;49.452;8.502;2023-03-03T16:30:41;12.25;;;8.70;;
12048;SDS011;6085;49.452;8.502;2023-03-03T16:34:56;14.70;;;9.60;;
12048;SDS011;6085;49.452;8.502;2023-03-03T16:39:03;13.63;;;8.63;;
12048;SDS011;6085;49.452;8.502;2023-03-03T16:43:11;12.95;;;8.85;;
12048;SDS011;6085;49.452;8.502;2023-03-03T16:47:31;12.98;;;8.35;;
12048;SDS011;6085;49.452;8.502;2023-03-03T16:51:44;11.45;;;8.25;;
12048;SDS011;6085;49.452;8.502;2023-03-03T16:55:52;9.98;;;7.72;;
12048;SDS011;6085;49.452;8.502;2023-03-03T17:00:04;11.57;;;8.02;;
12048;SDS011;6085;49.452;8.502;2023-03-03T17:04:12;12.18;;;7.75;;
12048;SDS011;6085;49.452;8.502;2023-03-03T17:08:23;11.50;;;7.55;;
12048;SDS011;6085;49.452;8.502;2023-03-03T17:12:57;12.05;;;8.52;;
12048;SDS011;6085;49.452;8.502;2023-03-03T17:17:14;11.63;;;7.85;;
12048;SDS011;6085;49.452;8.502;2023-03-03T17:21:27;12.52;;;8.88;;
12048;SDS011;6085;49.452;8.502;2023-03-03T17:25:45;15.98;;;9.65;;
12048;SDS011;6085;49.452;8.502;2023-03-03T17:30:01;14.82;;;10.02;;
12048;SDS011;6085;49.452;8.502;2023-03-03T17:34:20;15.27;;;11.02;;
12048;SDS011;6085;49.452;8.502;2023-03-03T17:38:36;16.88;;;11.13;;
12048;SDS011;6085;49.452;8.502;2023-03-03T17:42:48;14.25;;;10.25;;
12048;SDS011;6085;49.452;8.502;2023-03-03T17:46:57;15.27;;;10.52;;
12048;SDS011;6085;49.452;8.502;2023-03-03T17:55:54;13.50;;;9.90;;
12048;SDS011;6085;49.452;8.502;2023-03-03T18:00:06;12.50;;;9.15;;
12048;SDS011;6085;49.452;8.502;2023-03-03T18:09:05;12.63;;;8.75;;
12048;SDS011;6085;49.452;8.502;2023-03-03T18:13:22;11.38;;;8.35;;
12048;SDS011;6085;49.452;8.502;2023-03-03T18:17:43;9.75;;;7.13;;
12048;SDS011;6085;49.452;8.502;2023-03-03T18:22:05;10.35;;;7.18;;
12048;SDS011;6085;49.452;8.502;2023-03-03T18:26:28;10.13;;;7.38;;
12048;SDS011;6085;49.452;8.502;2023-03-03T18:39:34;10.60;;;7.13;;
12048;SDS011;6085;49.452;8.502;2023-03-03T18:43:46;11.30;;;6.63;;
12048;SDS011;6085;49.452;8.502;2023-03-03T18:48:06;8.90;;;6.45;;
12048;SDS011;6085;49.452;8.502;2023-03-03T18:52:15;10.45;;;6.43;;
12048;SDS011;6085;49.452;8.502;2023-03-03T18:56:40;9.90;;;6.13;;
12048;SDS011;6085;49.452;8.502;2023-03-03T19:00:44;10.13;;;6.93;;
12048;SDS011;6085;49.452;8.502;2023-03-03T19:04:51;9.77;;;6.80;;
12048;SDS011;6085;49.452;8.502;2023-03-03T19:08:55;8.70;;;6.65;;
12048;SDS011;6085;49.452;8.502;2023-03-03T19:12:59;8.60;;;6.82;;
12048;SDS011;6085;49.452;8.502;2023-03-03T19:21:38;9.88;;;6.95;;
12048;SDS011;6085;49.452;8.502;2023-03-03T19:25:41;9.20;;;7.03;;
12048;SDS011;6085;49.452;8.502;2023-03-03T19:29:58;10.73;;;6.93;;
12048;SDS011;6085;49.452;8.502;2023-03-03T19:34:12;9.52;;;6.80;;
12048;SDS011;6085;49.452;8.502;2023-03-03T19:38:26;8.98;;;6.55;;
12048;SDS011;6085;49.452;8.502;2023-03-03T19:42:37;11.32;;;7.18;;
12048;SDS011;6085;49.452;8.502;2023-03-03T19:46:49;10.32;;;6.93;;
12048;SDS011;6085;49.452;8.502;2023-03-03T19:50:57;12.10;;;7.30;;
12048;SDS011;6085;49.452;8.502;2023-03-03T19:55:14;10.43;;;6.75;;
12048;SDS011;6085;49.452;8.502;2023-03-03T19:59:25;10.82;;;7.18;;
12048;SDS011;6085;49.452;8.502;2023-03-03T20:03:51;11.18;;;7.35;;
12048;SDS011;6085;49.452;8.502;2023-03-03T20:08:00;9.95;;;7.43;;
12048;SDS011;6085;49.452;8.502;2023-03-03T20:12:10;9.00;;;6.97;;
12048;SDS011;6085;49.452;8.502;2023-03-03T20:16:36;10.13;;;7.30;;
12048;SDS011;6085;49.452;8.502;2023-03-03T20:20:50;11.20;;;6.53;;
12048;SDS011;6085;49.452;8.502;2023-03-03T20:25:04;8.40;;;6.13;;
12048;SDS011;6085;49.452;8.502;2023-03-03T20:29:18;9.55;;;6.60;;
12048;SDS011;6085;49.452;8.502;2023-03-03T20:33:36;10.80;;;7.20;;
12048;SDS011;6085;49.452;8.502;2023-03-03T20:37:49;11.13;;;7.47;;
12048;SDS011;6085;49.452;8.502;2023-03-03T20:41:59;12.55;;;7.65;;
12048;SDS011;6085;49.452;8.502;2023-03-03T20:46:11;9.63;;;6.93;;
12048;SDS011;6085;49.452;8.502;2023-03-03T20:50:23;11.27;;;7.30;;
12048;SDS011;6085;49.452;8.502;2023-03-03T20:54:36;12.73;;;7.20;;
12048;SDS011;6085;49.452;8.502;2023-03-03T20:58:46;10.77;;;7.10;;
12048;SDS011;6085;49.452;8.502;2023-03-03T21:03:02;9.25;;;6.70;;
12048;SDS011;6085;49.452;8.502;2023-03-03T21:07:21;11.38;;;6.70;;
12048;SDS011;6085;49.452;8.502;2023-03-03T21:11:39;10.70;;;7.03;;
12048;SDS011;6085;49.452;8.502;2023-03-03T21:15:42;10.18;;;6.53;;
12048;SDS011;6085;49.452;8.502;2023-03-03T21:19:55;9.10;;;6.72;;
12048;SDS011;6085;49.452;8.502;2023-03-03T21:24:19;13.27;;;7.68;;
12048;SDS011;6085;49.452;8.502;2023-03-03T21:28:22;11.88;;;7.90;;
12048;SDS011;6085;49.452;8.502;2023-03-03T21:32:33;12.40;;;7.75;;
12048;SDS011;6085;49.452;8.502;2023-03-03T21:36:47;13.85;;;8.48;;
12048;SDS011;6085;49.452;8.502;2023-03-03T21:40:57;11.18;;;7.55;;
12048;SDS011;6085;49.452;8.502;2023-03-03T21:45:07;11.68;;;8.73;;
12048;SDS011;6085;49.452;8.502;2023-03-03T21:49:10;15.10;;;8.73;;
12048;SDS011;6085;49.452;8.502;2023-03-03T21:53:14;13.57;;;8.85;;
12048;SDS011;6085;49.452;8.502;2023-03-03T21:57:15;15.48;;;9.93;;
12048;SDS011;6085;49.452;8.502;2023-03-03T22:01:18;19.20;;;11.52;;
12048;SDS011;6085;49.452;8.502;2023-03-03T22:05:19;18.15;;;11.32;;
12048;SDS011;6085;49.452;8.502;2023-03-03T22:09:23;20.17;;;11.90;;
12048;SDS011;6085;49.452;8.502;2023-03-03T22:13:25;20.75;;;12.38;;
12048;SDS011;6085;49.452;8.502;2023-03-03T22:17:27;20.92;;;12.93;;
12048;SDS011;6085;49.452;8.502;2023-03-03T22:21:29;19.95;;;12.40;;
12048;SDS011;6085;49.452;8.502;2023-03-03T22:25:33;21.92;;;13.70;;
12048;SDS011;6085;49.452;8.502;2023-03-03T22:29:35;23.92;;;15.38;;
12048;SDS011;6085;49.452;8.502;2023-03-03T22:33:37;25.15;;;16.58;;
12048;SDS011;6085;49.452;8.502;2023-03-03T22:37:38;27.75;;;16.67;;
12048;SDS011;6085;49.452;8.502;2023-03-03T22:41:42;25.65;;;16.60;;
12048;SDS011;6085;49.452;8.502;2023-03-03T22:45:44;27.63;;;16.48;;
12048;SDS011;6085;49.452;8.502;2023-03-03T22:49:46;27.30;;;17.38;;
12048;SDS011;6085;49.452;8.502;2023-03-03T22:53:47;31.10;;;18.80;;
12048;SDS011;6085;49.452;8.502;2023-03-03T22:57:51;28.67;;;17.27;;
12048;SDS011;6085;49.452;8.502;2023-03-03T23:01:53;30.30;;;18.42;;
12048;SDS011;6085;49.452;8.502;2023-03-03T23:05:55;29.38;;;18.15;;
12048;SDS011;6085;49.452;8.502;2023-03-03T23:09:57;29.40;;;17.75;;
12048;SDS011;6085;49.452;8.502;2023-03-03T23:14:00;31.88;;;18.10;;
12048;SDS011;6085;49.452;8.502;2023-03-03T23:18:02;33.08;;;18.77;;
12048;SDS011;6085;49.452;8.502;2023-03-03T23:22:04;34.45;;;19.05;;
12048;SDS011;6085;49.452;8.502;2023-03-03T23:26:06;32.08;;;18.83;;
12048;SDS011;6085;49.452;8.502;2023-03-03T23:30:11;32.53;;;18.42;;
12048;SDS011;6085;49.452;8.502;2023-03-03T23:34:14;34.75;;;19.13;;
12048;SDS011;6085;49.452;8.502;2023-03-03T23:38:16;36.33;;;20.02;;
12048;SDS011;6085;49.452;8.502;2023-03-03T23:42:18;37.47;;;20.13;;
12048;SDS011;6085;49.452;8.502;2023-03-03T23:46:22;35.50;;;18.88;;
12048;SDS011;6085;49.452;8.502;2023-03-03T23:50:24;34.22;;;19.02;;
12048;SDS011;6085;49.452;8.502;2023-03-03T23:54:26;37.80;;;18.48;;
12048;SDS011;6085;49.452;8.502;2023-03-03T23:58:29;37.53;;;20.35;;
